Elbow Lake, MN

11:59 PM CST on December 15, 2019 (GMT -0600)
Elbow Lake

Weather History for KY63 - November, 2019

Change the Weather History Date:

Friday, November 15, 2019

  Actual Average (KFFM) Record (KFFM)
Temperature  
Mean Temperature 30 °F -  
Max Temperature 37 °F 37 °F 67 °F (1981)
Min Temperature 24 °F 20 °F 3 °F (2014)
Degree Days  
Heating Degree Days 34    
Moisture  
Dew Point 28 °F    
Average Humidity 87    
Maximum Humidity 100    
Minimum Humidity 74    
Precipitation  
Precipitation 0.00 in - - ()
Sea Level Pressure  
Sea Level Pressure 30.21 in    
Wind  
Wind Speed 8 mph ()    
Max Wind Speed 18 mph    
Max Gust Speed 23 mph    
Visibility 9.6 miles    
Events      
Averages and records for this station are not official NWS values.
T = Trace of Precipitation, MM = Missing Value Source: Averaged Metar Reports

Daily Weather History Graph

Daily Weather History Graph

Search for Another Location

Airport or City:

Astronomy

Nov. 15, 2019 Rise Set
Actual Time 7:24 AM CST 4:52 PM CST
Civil Twilight 6:51 AM CST 5:24 PM CST
Nautical Twilight 6:15 AM CST 6:01 PM CST
Astronomical Twilight 5:40 AM CST 6:36 PM CST
Moon 7:22 PM CST (11/15) 10:27 AM CST (11/15)
Length of Visible Light 10h 33m
Length of Day
9h 28m
Waning Gibbous, 90% of the Moon is Illuminated
Nov 15
Waning Gibbous
Nov 19
Last Quarter
Nov 26
New
Dec 4
First Quarter
Dec 11
Full

Hourly Weather History & Observations

Time (CST) Temp. Windchill Dew Point Humidity Pressure Visibility Wind Dir Wind Speed Gust Speed Precip Events Conditions
12:16 AM 24.8 °F - 24.8 °F 100% 30.20 in 1.0 mi Calm Calm - N/A   Mist
12:36 AM 25.5 °F - 25.5 °F 100% 30.20 in 4.0 mi Calm Calm - N/A   Clear
12:55 AM 25.2 °F 20.9 °F 25.2 °F 100% 30.21 in 7.0 mi NNE 3.5 mph - N/A   Clear
1:15 AM 25.5 °F 18.7 °F 25.5 °F 100% 30.21 in 5.0 mi East 5.8 mph - N/A   Clear
1:35 AM 27.5 °F 22.2 °F 27.5 °F 100% 30.21 in 5.0 mi ENE 4.6 mph - N/A   Clear
1:55 AM 29.1 °F 25.4 °F 29.1 °F 100% 30.21 in 10.0 mi NE 3.5 mph - N/A   Clear
2:15 AM 29.8 °F 26.3 °F 29.8 °F 100% 30.21 in 10.0 mi NE 3.5 mph - N/A   Clear
2:35 AM 28.8 °F 25.0 °F 28.4 °F 99% 30.22 in 10.0 mi NE 3.5 mph - N/A   Clear
2:56 AM 27.3 °F 23.4 °F 27.1 °F 99% 30.22 in 10.0 mi ENE 3.5 mph - N/A   Clear
3:15 AM 27.5 °F 23.6 °F 27.3 °F 99% 30.22 in 10.0 mi NE 3.5 mph - N/A   Clear
3:35 AM 27.7 °F 22.4 °F 27.3 °F 99% 30.23 in 10.0 mi NE 4.6 mph - N/A   Clear
3:56 AM 28.4 °F 23.3 °F 27.9 °F 98% 30.22 in 10.0 mi ENE 4.6 mph - N/A   Clear
4:15 AM 29.1 °F 23.0 °F 27.9 °F 95% 30.22 in 10.0 mi NE 5.8 mph - N/A   Clear
4:36 AM 29.1 °F 25.4 °F 27.7 °F 94% 30.23 in 10.0 mi NE 3.5 mph - N/A   Clear
4:56 AM 27.3 °F - 26.4 °F 96% 30.24 in 10.0 mi Calm Calm - N/A   Scattered Clouds
5:16 AM 27.5 °F 22.2 °F 26.6 °F 96% 30.24 in 10.0 mi SSE 4.6 mph - N/A   Mostly Cloudy
5:35 AM 25.9 °F 19.2 °F 25.3 °F 98% 30.24 in 7.0 mi SSE 5.8 mph - N/A   Overcast
5:56 AM 27.1 °F 21.8 °F 26.6 °F 98% 30.25 in 10.0 mi SE 4.6 mph - N/A   Overcast
6:15 AM 28.2 °F 21.0 °F 27.9 °F 99% 30.25 in 10.0 mi SE 6.9 mph - N/A   Overcast
6:35 AM 29.1 °F 21.3 °F 28.4 °F 97% 30.25 in 10.0 mi SE 8.1 mph - N/A   Overcast
6:55 AM 29.3 °F 22.3 °F 28.4 °F 96% 30.25 in 10.0 mi SSE 6.9 mph - N/A   Overcast
7:16 AM 30.2 °F 21.9 °F 29.1 °F 96% 30.25 in 10.0 mi SE 9.2 mph - N/A   Overcast
7:36 AM 29.8 °F 23.0 °F 28.6 °F 95% 30.25 in 10.0 mi SE 6.9 mph - N/A   Scattered Clouds
7:55 AM 30.0 °F 22.4 °F 28.9 °F 96% 30.26 in 10.0 mi SE 8.1 mph - N/A   Scattered Clouds
8:16 AM 29.5 °F 21.8 °F 28.6 °F 96% 30.26 in 10.0 mi SSE 8.1 mph - N/A   Overcast
8:35 AM 30.2 °F 22.6 °F 29.1 °F 96% 30.27 in 10.0 mi SE 8.1 mph - N/A   Scattered Clouds
8:55 AM 31.3 °F 22.1 °F 29.7 °F 94% 30.27 in 10.0 mi ESE 11.5 mph - N/A   Scattered Clouds
9:16 AM 32.0 °F 23.6 °F 30.2 °F 93% 30.28 in 10.0 mi East 10.4 mph 16.1 mph N/A   Scattered Clouds
9:55 AM 32.2 °F 22.7 °F 30.7 °F 94% 30.28 in 10.0 mi SE 12.7 mph 18.4 mph N/A   Overcast
10:16 AM 32.9 °F 23.2 °F 31.1 °F 93% 30.28 in 10.0 mi SE 13.8 mph - N/A   Overcast
10:55 AM 33.6 °F 24.6 °F 30.7 °F 89% 30.29 in 10.0 mi SE 12.7 mph - N/A   Mostly Cloudy
11:16 AM 33.8 °F 23.9 °F 30.9 °F 89% 30.28 in 10.0 mi SSE 15.0 mph - N/A   Overcast
11:36 AM 34.9 °F 24.6 °F 31.1 °F 86% 30.28 in 10.0 mi SSE 17.3 mph - N/A   Overcast
11:56 AM 36.1 °F 27.3 °F 31.5 °F 83% 30.27 in 10.0 mi ESE 13.8 mph - N/A   Mostly Cloudy
12:15 PM 36.3 °F 27.1 °F 31.3 °F 82% 30.27 in 10.0 mi SE 15.0 mph - N/A   Mostly Cloudy
12:36 PM 36.5 °F 27.4 °F 31.1 °F 81% 30.26 in 10.0 mi SE 15.0 mph - N/A   Clear
12:56 PM 37.0 °F 28.5 °F 31.3 °F 80% 30.25 in 10.0 mi SE 13.8 mph - N/A   Clear
1:15 PM 37.4 °F 28.5 °F 31.1 °F 78% 30.24 in 10.0 mi SSE 15.0 mph 19.6 mph N/A   Clear
1:35 PM 37.4 °F 28.9 °F 31.1 °F 78% 30.24 in 10.0 mi SE 13.8 mph - N/A   Clear
1:55 PM 36.7 °F 26.6 °F 30.2 °F 77% 30.23 in 10.0 mi SSE 18.4 mph - N/A   Clear
2:16 PM 36.1 °F 26.2 °F 29.3 °F 76% 30.22 in 10.0 mi SE 17.3 mph 21.9 mph N/A   Clear
2:36 PM 36.0 °F 25.6 °F 28.8 °F 75% 30.21 in 10.0 mi SSE 18.4 mph 21.9 mph N/A   Clear
2:55 PM 36.5 °F 27.4 °F 28.9 °F 74% 30.21 in 10.0 mi SE 15.0 mph 21.9 mph N/A   Clear
3:15 PM 36.5 °F 27.0 °F 29.3 °F 75% 30.21 in 10.0 mi SSE 16.1 mph 19.6 mph N/A   Clear
3:36 PM 35.8 °F 26.9 °F 29.1 °F 77% 30.21 in 10.0 mi SE 13.8 mph - N/A   Clear
3:56 PM 35.2 °F 25.8 °F 28.8 °F 77% 30.21 in 10.0 mi SE 15.0 mph 20.7 mph N/A   Clear
4:16 PM 34.7 °F 25.1 °F 28.9 °F 79% 30.21 in 10.0 mi SE 15.0 mph 20.7 mph N/A   Clear
4:35 PM 34.2 °F 24.8 °F 28.8 °F 81% 30.20 in 10.0 mi SE 13.8 mph - N/A   Clear
4:55 PM 33.3 °F 23.2 °F 28.2 °F 82% 30.20 in 10.0 mi SE 15.0 mph - N/A   Clear
5:15 PM 32.7 °F 23.4 °F 27.5 °F 81% 30.20 in 10.0 mi SE 12.7 mph - N/A   Clear
5:36 PM 32.2 °F 21.8 °F 27.5 °F 83% 30.19 in 10.0 mi SE 15.0 mph - N/A   Clear
5:55 PM 32.0 °F 20.8 °F 27.1 °F 82% 30.19 in 10.0 mi SE 17.3 mph 21.9 mph N/A   Clear
6:16 PM 32.0 °F 20.5 °F 27.0 °F 82% 30.19 in 10.0 mi SE 18.4 mph 23.0 mph N/A   Clear
6:35 PM 32.0 °F 21.2 °F 26.6 °F 80% 30.19 in 10.0 mi SE 16.1 mph 23.0 mph N/A   Clear
6:55 PM 32.0 °F 21.2 °F 26.2 °F 79% 30.19 in 10.0 mi ESE 16.1 mph 21.9 mph N/A   Clear
7:15 PM 32.0 °F 21.6 °F 26.1 °F 79% 30.19 in 10.0 mi SE 15.0 mph - N/A   Clear
7:36 PM 32.0 °F 21.2 °F 26.1 °F 79% 30.18 in 10.0 mi SE 16.1 mph 21.9 mph N/A   Clear
7:55 PM 32.0 °F 21.2 °F 26.1 °F 79% 30.18 in 10.0 mi ESE 16.1 mph 21.9 mph N/A   Clear
8:16 PM 32.2 °F 21.4 °F 26.4 °F 79% 30.17 in 10.0 mi ESE 16.1 mph 21.9 mph N/A   Clear
8:35 PM 32.4 °F 21.7 °F 26.6 °F 79% 30.17 in 10.0 mi SE 16.1 mph 21.9 mph N/A   Clear
8:55 PM 32.9 °F 22.8 °F 26.6 °F 78% 30.16 in 10.0 mi ESE 15.0 mph - N/A   Clear
9:15 PM 32.9 °F 22.0 °F 27.3 °F 80% 30.15 in 10.0 mi SE 17.3 mph 21.9 mph N/A   Clear
9:35 PM 33.1 °F 22.2 °F 27.1 °F 79% 30.15 in 10.0 mi SE 17.3 mph 23.0 mph N/A   Clear
9:55 PM 33.1 °F 21.9 °F 27.3 °F 79% 30.14 in 10.0 mi ESE 18.4 mph - N/A   Clear
10:16 PM 33.4 °F 23.5 °F 27.7 °F 79% 30.14 in 10.0 mi ESE 15.0 mph 21.9 mph N/A   Clear
10:36 PM 33.8 °F 23.2 °F 28.0 °F 79% 30.13 in 10.0 mi ESE 17.3 mph 23.0 mph N/A   Clear
10:55 PM 33.8 °F 23.9 °F 28.4 °F 81% 30.11 in 10.0 mi ESE 15.0 mph 21.9 mph N/A   Clear
11:16 PM 34.2 °F 24.0 °F 28.6 °F 80% 30.11 in 10.0 mi SE 16.1 mph 21.9 mph N/A   Clear
11:36 PM 34.7 °F 24.7 °F 29.3 °F 81% 30.11 in 10.0 mi ESE 16.1 mph 21.9 mph N/A   Clear
11:56 PM 34.3 °F 25.0 °F 29.5 °F 82% 30.10 in 10.0 mi ESE 13.8 mph 23.0 mph N/A   Clear